Time;durP1;ratioP1;P1;durP2;ratioP2;P2;SDS_P1;SDS_P2;PMS_P1;PMS_P2;Temp;Humidity;BMP_temperature;BMP_pressure;BME280_temperature;BME280_humidity;BME280_pressure;Samples;Min_cycle;Max_cycle;Signal;HPM_P1;HPM_P2
2023/10/08 00:01:33;;;;;;;0.47;0.47;;;17.70;62.00;;;;;;6184166;23;20209;-82
2023/10/08 00:04:04;;;;;;;2.00;0.60;;;17.70;62.60;;;;;;6183344;23;20164;-85
2023/10/08 00:06:33;;;;;;;3.47;1.07;;;17.70;62.50;;;;;;6182215;23;20179;-84
2023/10/08 00:09:07;;;;;;;0.30;0.30;;;17.70;62.60;;;;;;6182654;23;20251;-84
2023/10/08 00:11:40;;;;;;;1.07;0.97;;;17.70;62.70;;;;;;6183321;23;20191;-87
2023/10/08 00:14:09;;;;;;;0.47;0.43;;;17.60;63.20;;;;;;6182649;23;20167;-85
2023/10/08 00:16:40;;;;;;;2.47;1.47;;;17.60;63.00;;;;;;6182575;23;20184;-83
2023/10/08 00:19:12;;;;;;;6.40;0.87;;;17.60;63.00;;;;;;6183188;23;20162;-84
2023/10/08 00:21:44;;;;;;;0.40;0.40;;;17.50;63.60;;;;;;6183130;23;20239;-85
2023/10/08 00:24:13;;;;;;;0.60;0.50;;;17.50;63.50;;;;;;6182336;23;20202;-86
2023/10/08 00:26:42;;;;;;;0.63;0.63;;;17.50;63.80;;;;;;6183644;23;20176;-85
2023/10/08 00:29:21;;;;;;;1.03;0.57;;;17.50;63.80;;;;;;6184839;23;20163;-85
2023/10/08 00:31:51;;;;;;;7.30;1.70;;;17.40;64.40;;;;;;6185210;23;20167;-85
2023/10/08 00:34:21;;;;;;;1.30;0.70;;;17.40;64.10;;;;;;6184466;23;20204;-85
2023/10/08 00:36:50;;;;;;;0.40;0.40;;;17.40;64.50;;;;;;6184753;23;20194;-84
2023/10/08 00:39:23;;;;;;;1.03;0.77;;;17.30;64.30;;;;;;6187246;23;20175;-84
2023/10/08 00:41:58;;;;;;;1.80;0.93;;;17.30;64.30;;;;;;6187380;23;20176;-84
2023/10/08 00:44:30;;;;;;;1.30;0.40;;;17.30;64.20;;;;;;6191701;23;20168;-86
2023/10/08 00:47:04;;;;;;;0.47;0.47;;;17.30;64.20;;;;;;6208128;23;20144;-84
2023/10/08 00:52:30;;;;;;;1.27;1.17;;;17.30;64.40;;;;;;6204394;23;20199;-86
2023/10/08 00:55:20;;;;;;;0.33;0.30;;;17.30;64.60;;;;;;6208532;23;20198;-85
2023/10/08 00:57:53;;;;;;;4.43;1.40;;;17.30;64.70;;;;;;6209713;23;20180;-84
2023/10/08 01:00:22;;;;;;;0.30;0.30;;;17.30;65.00;;;;;;6210436;23;20201;-85
2023/10/08 01:03:00;;;;;;;0.63;0.63;;;17.20;65.00;;;;;;6210364;23;20168;-83
2023/10/08 01:05:42;;;;;;;0.53;0.53;;;17.30;65.10;;;;;;6208853;23;20219;-84
2023/10/08 01:08:18;;;;;;;0.60;0.50;;;17.20;65.40;;;;;;6186407;23;20226;-83
2023/10/08 01:10:47;;;;;;;0.73;0.73;;;17.20;65.50;;;;;;6185108;23;20242;-85
2023/10/08 01:13:19;;;;;;;4.67;1.43;;;17.10;66.20;;;;;;6185096;23;20222;-84
2023/10/08 01:15:51;;;;;;;2.70;2.50;;;17.00;66.40;;;;;;6184309;23;20247;-84
2023/10/08 01:18:30;;;;;;;1.20;1.07;;;17.10;66.30;;;;;;6183939;23;20227;-84
2023/10/08 01:21:07;;;;;;;0.63;0.63;;;17.00;66.10;;;;;;6184383;23;20182;-85
2023/10/08 01:23:38;;;;;;;0.53;0.53;;;17.00;66.40;;;;;;6183432;23;20194;-86
2023/10/08 01:26:11;;;;;;;1.17;1.07;;;17.00;66.60;;;;;;6184047;23;20218;-85
2023/10/08 01:28:43;;;;;;;1.27;1.07;;;17.00;66.60;;;;;;6182855;23;20613;-85
2023/10/08 01:31:12;;;;;;;0.60;0.60;;;17.00;66.80;;;;;;6183998;23;20896;-85
2023/10/08 01:33:49;;;;;;;2.70;1.60;;;16.90;66.50;;;;;;6183041;23;20164;-86
2023/10/08 01:36:18;;;;;;;1.73;1.23;;;16.90;66.90;;;;;;6182046;23;20187;-84
2023/10/08 01:38:49;;;;;;;0.63;0.63;;;16.80;67.10;;;;;;6182145;23;20206;-86
2023/10/08 01:41:29;;;;;;;0.50;0.50;;;16.80;67.30;;;;;;6183726;23;20170;-84
2023/10/08 01:43:59;;;;;;;0.63;0.63;;;16.80;67.40;;;;;;6181176;23;20167;-85
2023/10/08 01:46:28;;;;;;;0.70;0.70;;;16.70;67.40;;;;;;6181970;23;20207;-84
2023/10/08 01:49:04;;;;;;;6.87;0.87;;;16.80;67.50;;;;;;6181999;23;20164;-86
2023/10/08 01:51:44;;;;;;;0.77;0.77;;;16.70;67.40;;;;;;6184300;23;20246;-85
2023/10/08 01:54:17;;;;;;;0.80;0.80;;;16.70;68.20;;;;;;6182527;23;20171;-85
2023/10/08 01:56:46;;;;;;;0.80;0.80;;;16.70;67.20;;;;;;6182719;23;20187;-84
2023/10/08 01:59:16;;;;;;;0.60;0.60;;;16.70;66.90;;;;;;6182933;23;20958;-86
2023/10/08 02:01:46;;;;;;;0.97;0.83;;;16.70;67.10;;;;;;6181403;23;20264;-86
2023/10/08 02:04:16;;;;;;;0.97;0.97;;;16.70;67.00;;;;;;6183120;23;20598;-87
2023/10/08 02:06:46;;;;;;;1.17;0.80;;;16.70;66.80;;;;;;6180939;23;20493;-85
2023/10/08 02:09:16;;;;;;;0.60;0.60;;;16.70;67.20;;;;;;6183650;23;20172;-86
2023/10/08 02:11:49;;;;;;;0.60;0.60;;;16.60;67.00;;;;;;6182129;23;20566;-85
2023/10/08 02:14:18;;;;;;;1.53;0.93;;;16.60;67.40;;;;;;6182461;23;20243;-85
2023/10/08 02:16:48;;;;;;;4.57;1.53;;;16.60;67.40;;;;;;6180355;23;20172;-85
2023/10/08 02:19:26;;;;;;;0.67;0.67;;;16.50;67.50;;;;;;6182589;23;20196;-84
2023/10/08 02:21:57;;;;;;;1.07;0.67;;;16.50;67.70;;;;;;6181575;23;20190;-86
2023/10/08 02:24:30;;;;;;;0.50;0.50;;;16.40;68.10;;;;;;6183014;23;20178;-86
2023/10/08 02:26:59;;;;;;;1.20;1.10;;;16.40;67.80;;;;;;6181311;23;20182;-85
2023/10/08 02:29:30;;;;;;;0.50;0.50;;;16.50;67.60;;;;;;6183282;23;20206;-85
2023/10/08 02:31:59;;;;;;;0.80;0.80;;;16.40;67.80;;;;;;6182334;23;20204;-85
2023/10/08 02:34:27;;;;;;;0.73;0.67;;;16.30;68.10;;;;;;6183230;23;20164;-85
2023/10/08 02:36:56;;;;;;;2.10;0.60;;;16.40;67.70;;;;;;6181042;23;20175;-85
2023/10/08 02:39:26;;;;;;;0.60;0.50;;;16.40;67.80;;;;;;6157585;23;20200;-85
2023/10/08 02:41:59;;;;;;;2.37;1.77;;;16.30;68.00;;;;;;6182602;23;20628;-85
2023/10/08 02:44:27;;;;;;;0.30;0.30;;;16.30;68.30;;;;;;6183447;23;20174;-86
2023/10/08 02:46:56;;;;;;;1.53;1.43;;;16.30;68.30;;;;;;6180712;23;20215;-85
2023/10/08 02:49:25;;;;;;;1.30;1.07;;;16.20;68.40;;;;;;6182955;23;20558;-86
2023/10/08 02:51:58;;;;;;;0.40;0.40;;;16.20;68.70;;;;;;6180526;23;20199;-85
2023/10/08 02:54:36;;;;;;;1.17;0.93;;;16.20;68.70;;;;;;6181466;23;20159;-85
2023/10/08 02:57:10;;;;;;;0.67;0.67;;;16.10;68.90;;;;;;6180923;23;20606;-86
2023/10/08 02:59:42;;;;;;;0.70;0.60;;;16.10;69.00;;;;;;6182285;23;20563;-85
2023/10/08 03:02:15;;;;;;;3.53;1.20;;;16.00;69.20;;;;;;6174586;23;20276;-86
2023/10/08 03:04:46;;;;;;;1.60;0.67;;;16.00;69.50;;;;;;6181415;23;20218;-85
2023/10/08 03:07:22;;;;;;;0.73;0.50;;;15.90;69.20;;;;;;6180821;23;20160;-86
2023/10/08 03:10:03;;;;;;;0.50;0.50;;;15.90;69.30;;;;;;6179983;23;20511;-83
2023/10/08 03:12:33;;;;;;;1.60;0.67;;;15.90;69.60;;;;;;6181737;23;20215;-85
2023/10/08 03:15:12;;;;;;;3.70;1.83;;;15.90;69.80;;;;;;6181934;23;20163;-85
2023/10/08 03:17:48;;;;;;;1.37;1.27;;;15.80;70.00;;;;;;6181733;23;20497;-86
2023/10/08 03:20:38;;;;;;;5.27;1.10;;;15.80;70.40;;;;;;6182572;23;20270;-86
2023/10/08 03:23:12;;;;;;;1.70;0.97;;;15.70;70.70;;;;;;6182794;23;20178;-86
2023/10/08 03:25:43;;;;;;;0.60;0.60;;;15.60;71.20;;;;;;6181422;23;20158;-87
2023/10/08 03:28:16;;;;;;;3.03;1.50;;;15.60;71.30;;;;;;6184793;23;20172;-86
2023/10/08 03:30:51;;;;;;;0.50;0.50;;;15.60;71.30;;;;;;6159229;23;20159;-87
2023/10/08 03:33:26;;;;;;;2.40;1.00;;;15.50;71.50;;;;;;6185645;23;20162;-86
2023/10/08 03:35:55;;;;;;;4.97;1.27;;;15.50;71.80;;;;;;6183856;23;20164;-86
2023/10/08 03:38:39;;;;;;;3.17;0.53;;;15.50;72.20;;;;;;6133224;23;20924;-86
2023/10/08 03:41:15;;;;;;;0.57;0.40;;;15.40;72.30;;;;;;6183587;23;20242;-86
2023/10/08 03:43:52;;;;;;;2.73;1.30;;;15.40;72.30;;;;;;6159990;23;20586;-86
2023/10/08 03:46:24;;;;;;;1.30;0.80;;;15.40;72.40;;;;;;6184747;23;20195;-84
2023/10/08 03:48:54;;;;;;;0.80;0.80;;;15.40;72.70;;;;;;6184241;23;20610;-84
2023/10/08 03:51:27;;;;;;;0.50;0.50;;;15.30;72.90;;;;;;6185870;23;20191;-85
2023/10/08 03:54:10;;;;;;;1.23;1.03;;;15.30;72.80;;;;;;6185169;23;20160;-86
2023/10/08 03:56:41;;;;;;;0.60;0.60;;;15.30;73.00;;;;;;6157158;23;20172;-86
2023/10/08 03:59:14;;;;;;;0.30;0.30;;;15.30;73.20;;;;;;6184702;23;20270;-85
2023/10/08 04:01:43;;;;;;;0.60;0.60;;;15.30;73.20;;;;;;6184523;23;20152;-85
2023/10/08 04:04:15;;;;;;;0.60;0.60;;;15.30;73.30;;;;;;6185979;23;20500;-87
2023/10/08 04:06:49;;;;;;;2.53;1.63;;;15.20;73.40;;;;;;6184995;23;20153;-85
2023/10/08 04:09:23;;;;;;;1.03;0.70;;;15.20;73.40;;;;;;6184411;23;20614;-85
2023/10/08 04:11:55;;;;;;;2.63;1.80;;;15.20;73.60;;;;;;6185464;23;20159;-85
2023/10/08 04:14:29;;;;;;;0.63;0.63;;;15.20;73.90;;;;;;6185412;23;20551;-85
2023/10/08 04:16:58;;;;;;;4.97;1.33;;;15.20;73.80;;;;;;6158111;23;20488;-83
2023/10/08 04:19:27;;;;;;;5.90;1.73;;;15.10;73.90;;;;;;6184014;23;20195;-86
2023/10/08 04:21:57;;;;;;;8.57;2.10;;;15.10;74.10;;;;;;6183085;23;20167;-85
2023/10/08 04:24:59;;;;;;;1.43;1.27;;;15.10;74.20;;;;;;6181064;23;20171;-83
2023/10/08 04:27:30;;;;;;;0.70;0.70;;;15.10;74.00;;;;;;6182242;23;20664;-85
2023/10/08 04:30:00;;;;;;;1.90;1.10;;;15.10;74.10;;;;;;6183877;23;20168;-84
2023/10/08 04:32:31;;;;;;;1.93;0.83;;;15.10;73.90;;;;;;6185585;23;20174;-85
2023/10/08 04:35:00;;;;;;;1.30;0.97;;;15.10;73.80;;;;;;6184651;23;20561;-84
2023/10/08 04:37:32;;;;;;;2.23;1.27;;;15.10;74.00;;;;;;6182749;23;20179;-87
2023/10/08 04:40:01;;;;;;;1.07;0.97;;;15.10;74.00;;;;;;6180201;23;20198;-86
2023/10/08 04:42:30;;;;;;;2.17;1.67;;;15.10;74.10;;;;;;6180153;23;20176;-85
2023/10/08 04:45:02;;;;;;;0.87;0.70;;;15.10;74.30;;;;;;6180677;23;20171;-83
2023/10/08 04:47:35;;;;;;;1.10;0.87;;;15.10;74.40;;;;;;6183934;23;20168;-86
2023/10/08 04:50:06;;;;;;;5.77;0.50;;;15.10;74.40;;;;;;6183593;23;20152;-86
2023/10/08 04:52:45;;;;;;;0.83;0.83;;;15.10;74.30;;;;;;6185996;23;20160;-84
2023/10/08 04:55:20;;;;;;;0.93;0.93;;;15.10;74.30;;;;;;6183212;23;20174;-84
2023/10/08 04:57:50;;;;;;;0.60;0.60;;;15.10;74.30;;;;;;6181036;23;20174;-83
2023/10/08 05:00:40;;;;;;;1.10;0.70;;;15.10;74.60;;;;;;6182405;23;20191;-83
2023/10/08 05:03:13;;;;;;;2.57;1.73;;;15.20;74.40;;;;;;6183676;23;20188;-86
2023/10/08 05:06:07;;;;;;;0.40;0.40;;;15.20;74.50;;;;;;6184099;23;20152;-83
2023/10/08 05:08:47;;;;;;;0.93;0.70;;;15.10;74.60;;;;;;6181466;23;20221;-82
2023/10/08 05:11:24;;;;;;;1.47;0.70;;;15.20;74.50;;;;;;6181852;23;20163;-83
2023/10/08 05:14:05;;;;;;;0.37;0.37;;;15.20;74.30;;;;;;6183905;23;20214;-86
2023/10/08 05:16:44;;;;;;;1.33;0.90;;;15.20;74.50;;;;;;6182965;23;20166;-85
2023/10/08 05:19:37;;;;;;;9.80;2.13;;;15.30;74.50;;;;;;6185069;23;20180;-85
2023/10/08 05:22:17;;;;;;;2.73;1.73;;;15.20;74.60;;;;;;6181705;23;20161;-85
2023/10/08 05:25:07;;;;;;;1.50;0.70;;;15.30;74.60;;;;;;6182399;23;20649;-83
2023/10/08 05:30:38;;;;;;;4.43;0.70;;;15.40;74.40;;;;;;6183225;23;20190;-85
2023/10/08 05:35:54;;;;;;;0.90;0.90;;;15.40;74.20;;;;;;6178937;23;20234;-87
2023/10/08 05:38:23;;;;;;;0.97;0.93;;;15.50;74.20;;;;;;6182205;23;20160;-83
2023/10/08 05:41:16;;;;;;;1.30;0.50;;;15.50;74.00;;;;;;6182183;23;20195;-84
2023/10/08 05:49:38;;;;;;;1.73;1.40;;;15.70;73.60;;;;;;6129137;23;20251;-85
2023/10/08 05:55:15;;;;;;;2.87;1.40;;;15.90;73.40;;;;;;6173983;23;20509;-86
2023/10/08 05:58:45;;;;;;;;;;;;;;;;;;;;;
2023/10/08 06:02:27;;;;;;;0.50;0.50;;;16.00;73.20;;;;;;6082693;23;20266;-86
2023/10/08 07:01:38;;;;;;;3.00;1.47;;;17.90;68.10;;;;;;6152414;23;20666;-86
2023/10/08 07:10:00;;;;;;;1.07;0.53;;;18.20;66.70;;;;;;6149254;23;20207;-85
2023/10/08 07:12:37;;;;;;;0.40;0.40;;;18.30;66.60;;;;;;6157214;23;20200;-88
2023/10/08 07:15:12;;;;;;;0.97;0.97;;;18.40;66.50;;;;;;6130757;23;20168;-84
2023/10/08 07:17:51;;;;;;;0.63;0.63;;;18.50;66.00;;;;;;6154318;23;20341;-85
2023/10/08 07:20:38;;;;;;;0.50;0.50;;;18.70;65.90;;;;;;6153282;23;20259;-85
2023/10/08 07:23:28;;;;;;;;;;;;;;;;;;;;;
2023/10/08 07:26:37;;;;;;;1.50;0.97;;;18.80;64.90;;;;;;6153028;23;20196;-81
2023/10/08 07:29:08;;;;;;;0.37;0.37;;;19.00;65.00;;;;;;6152040;23;20493;-85
2023/10/08 07:31:41;;;;;;;1.00;0.70;;;19.10;63.80;;;;;;6150692;23;20603;-86
2023/10/08 07:34:18;;;;;;;1.27;1.00;;;19.20;63.30;;;;;;6153930;23;20160;-87
2023/10/08 07:36:49;;;;;;;1.70;0.60;;;19.40;62.70;;;;;;6152618;23;20168;-87
2023/10/08 07:39:33;;;;;;;0.70;0.40;;;19.50;62.00;;;;;;6152711;23;20627;-86
2023/10/08 07:42:07;;;;;;;1.13;1.03;;;19.60;62.00;;;;;;6153036;23;20171;-87
2023/10/08 07:44:39;;;;;;;2.53;0.60;;;19.80;62.10;;;;;;6154627;23;20159;-85
2023/10/08 07:47:13;;;;;;;9.48;1.60;;;19.90;61.40;;;;;;6154956;23;20599;-86
2023/10/08 07:49:44;;;;;;;1.17;0.85;;;20.00;61.10;;;;;;6154294;23;20239;-87
2023/10/08 07:52:15;;;;;;;0.40;0.40;;;20.20;60.90;;;;;;6155104;23;20161;-85
2023/10/08 07:54:45;;;;;;;1.13;0.55;;;20.30;60.20;;;;;;6155046;23;20161;-86
2023/10/08 07:57:20;;;;;;;0.50;0.50;;;20.40;59.80;;;;;;6155855;23;20669;-85
2023/10/08 07:59:54;;;;;;;1.45;0.50;;;20.50;59.30;;;;;;6154326;23;20166;-85
2023/10/08 08:02:24;;;;;;;3.50;0.82;;;20.60;59.60;;;;;;6154992;23;20202;-85
2023/10/08 08:04:54;;;;;;;0.65;0.60;;;20.80;59.60;;;;;;6155070;23;20201;-85
2023/10/08 08:07:24;;;;;;;1.17;1.13;;;20.90;59.10;;;;;;6156082;23;20168;-84
2023/10/08 08:09:59;;;;;;;1.10;0.93;;;21.00;57.90;;;;;;6155829;23;20197;-85
2023/10/08 08:12:32;;;;;;;0.75;0.75;;;21.20;58.10;;;;;;6159041;23;20178;-84
2023/10/08 08:15:14;;;;;;;1.38;1.02;;;21.30;57.70;;;;;;6159465;23;20163;-84
2023/10/08 08:17:43;;;;;;;1.13;1.02;;;21.40;56.70;;;;;;6158422;23;20684;-85
2023/10/08 08:20:18;;;;;;;0.50;0.40;;;21.50;56.60;;;;;;6159703;23;20173;-85
2023/10/08 08:22:49;;;;;;;2.75;0.63;;;21.70;56.40;;;;;;6170521;23;20144;-84
2023/10/08 08:25:26;;;;;;;0.40;0.40;;;21.80;56.40;;;;;;6181840;23;20200;-85
2023/10/08 08:27:55;;;;;;;0.47;0.47;;;21.90;55.80;;;;;;6180485;23;20199;-84
2023/10/08 08:30:26;;;;;;;0.40;0.35;;;22.10;56.10;;;;;;6179953;23;20176;-84
2023/10/08 08:32:56;;;;;;;2.78;0.93;;;22.20;55.40;;;;;;6180245;23;20152;-84
2023/10/08 08:35:26;;;;;;;2.30;1.20;;;22.30;55.20;;;;;;6156667;23;20175;-83
2023/10/08 08:37:55;;;;;;;1.00;0.50;;;22.50;54.70;;;;;;6179046;23;20152;-84
2023/10/08 08:40:24;;;;;;;2.83;1.17;;;22.60;54.70;;;;;;6179762;23;20202;-85
2023/10/08 08:42:55;;;;;;;0.57;0.47;;;22.80;54.60;;;;;;6176847;23;20172;-84
2023/10/08 08:45:26;;;;;;;1.98;0.90;;;22.90;54.70;;;;;;6177427;23;20169;-84
2023/10/08 08:47:55;;;;;;;0.70;0.70;;;23.10;54.20;;;;;;6158380;23;20176;-84
2023/10/08 08:50:26;;;;;;;0.50;0.50;;;23.20;54.20;;;;;;6157111;23;20168;-84
2023/10/08 08:52:55;;;;;;;2.90;1.10;;;23.40;53.40;;;;;;6156263;23;20880;-85
2023/10/08 08:55:25;;;;;;;0.40;0.40;;;23.50;53.10;;;;;;6156605;23;20165;-86
2023/10/08 08:57:55;;;;;;;0.57;0.45;;;23.60;52.40;;;;;;6156947;23;20161;-83
2023/10/08 09:00:28;;;;;;;1.45;0.50;;;23.70;52.40;;;;;;6155508;23;20538;-85
2023/10/08 09:02:56;;;;;;;0.40;0.40;;;23.80;51.60;;;;;;6155640;23;20239;-86
2023/10/08 09:05:33;;;;;;;2.75;1.13;;;23.90;51.70;;;;;;6160480;23;20255;-84
2023/10/08 09:08:03;;;;;;;1.65;0.95;;;24.00;51.50;;;;;;6135475;23;20235;-85
2023/10/08 09:10:37;;;;;;;1.23;0.88;;;24.10;51.30;;;;;;6187353;23;20167;-85
2023/10/08 09:13:09;;;;;;;0.55;0.40;;;24.10;51.20;;;;;;6185665;23;20159;-83
2023/10/08 09:15:39;;;;;;;0.47;0.40;;;24.20;51.00;;;;;;6159771;23;20160;-84
2023/10/08 09:18:09;;;;;;;2.92;0.95;;;24.30;50.70;;;;;;6160022;23;20179;-84
2023/10/08 09:20:43;;;;;;;2.67;0.88;;;24.40;51.50;;;;;;6158563;23;20168;-84
2023/10/08 09:23:17;;;;;;;0.65;0.65;;;24.50;51.10;;;;;;6185083;23;20168;-86
2023/10/08 09:25:51;;;;;;;3.47;1.73;;;24.60;50.80;;;;;;6182829;23;20155;-85
2023/10/08 09:28:21;;;;;;;1.05;0.95;;;24.70;51.10;;;;;;6183621;23;20160;-84
2023/10/08 09:30:52;;;;;;;0.43;0.43;;;24.80;50.20;;;;;;6183485;23;20171;-85
2023/10/08 09:33:21;;;;;;;1.23;1.05;;;24.90;50.10;;;;;;6182305;23;20168;-83
2023/10/08 09:35:55;;;;;;;0.68;0.57;;;25.00;50.30;;;;;;6182517;23;20172;-85
2023/10/08 09:38:25;;;;;;;0.90;0.90;;;25.20;49.80;;;;;;6182956;23;20242;-85
2023/10/08 09:40:55;;;;;;;1.27;1.00;;;25.20;49.10;;;;;;6181705;23;20175;-85
2023/10/08 09:43:26;;;;;;;6.93;0.95;;;25.30;48.80;;;;;;6183102;23;20175;-87
2023/10/08 09:46:06;;;;;;;2.92;1.00;;;25.40;48.60;;;;;;6182207;23;20164;-87
2023/10/08 09:48:38;;;;;;;10.05;0.88;;;25.50;48.50;;;;;;6185061;23;20178;-86
2023/10/08 09:51:12;;;;;;;1.75;1.25;;;25.60;48.10;;;;;;6183284;23;20171;-85
2023/10/08 09:53:50;;;;;;;1.60;1.00;;;25.70;48.20;;;;;;6182080;23;20586;-85
2023/10/08 09:56:21;;;;;;;4.13;0.80;;;25.80;48.10;;;;;;6182943;23;20222;-86
2023/10/08 09:58:51;;;;;;;0.55;0.55;;;25.90;47.80;;;;;;6181918;23;20159;-86
2023/10/08 10:01:22;;;;;;;1.50;0.90;;;25.90;47.50;;;;;;6183533;23;20198;-85
2023/10/08 10:07:22;;;;;;;1.75;1.05;;;26.10;47.10;;;;;;6178892;23;20495;-87
2023/10/08 10:09:53;;;;;;;0.55;0.55;;;26.20;47.00;;;;;;6181287;23;20196;-86
2023/10/08 10:12:28;;;;;;;0.85;0.85;;;26.30;47.20;;;;;;6181543;23;20164;-84
2023/10/08 10:15:03;;;;;;;3.13;1.92;;;26.40;47.00;;;;;;6181850;23;20164;-85
2023/10/08 10:17:42;;;;;;;3.10;1.27;;;26.60;46.90;;;;;;6181074;23;20247;-90
2023/10/08 10:20:13;;;;;;;2.58;0.95;;;26.70;46.60;;;;;;6181928;23;20626;-85
2023/10/08 10:22:47;;;;;;;1.98;1.55;;;26.80;46.50;;;;;;6183232;23;20271;-88
2023/10/08 10:25:18;;;;;;;1.75;1.33;;;26.90;46.40;;;;;;6182178;23;20610;-90
2023/10/08 10:28:22;;;;;;;4.68;1.67;;;27.00;46.40;;;;;;6183541;23;20203;-85
2023/10/08 10:30:52;;;;;;;1.35;0.98;;;27.20;46.80;;;;;;6181325;23;20194;-86
2023/10/08 10:33:23;;;;;;;3.40;0.95;;;27.30;46.60;;;;;;6176860;23;20171;-89
2023/10/08 10:35:55;;;;;;;8.30;0.75;;;27.40;46.40;;;;;;6178395;23;20191;-86
2023/10/08 10:38:26;;;;;;;0.30;0.30;;;27.50;46.30;;;;;;6176896;23;20199;-85
2023/10/08 10:41:09;;;;;;;4.18;1.85;;;27.60;46.10;;;;;;6180141;23;20498;-88
2023/10/08 10:43:40;;;;;;;1.02;0.88;;;27.60;46.10;;;;;;6181526;23;20171;-86
2023/10/08 10:49:04;;;;;;;1.90;1.20;;;27.70;45.80;;;;;;6184606;23;20213;-86
2023/10/08 10:51:33;;;;;;;0.47;0.47;;;27.90;45.80;;;;;;6181952;23;20984;-85
2023/10/08 10:54:09;;;;;;;0.75;0.60;;;27.90;45.80;;;;;;6182919;23;20167;-87
2023/10/08 10:56:42;;;;;;;1.73;0.60;;;28.00;45.60;;;;;;6184075;23;20159;-88
2023/10/08 10:59:18;;;;;;;1.60;1.05;;;28.00;45.20;;;;;;6184349;23;21167;-87
2023/10/08 11:01:52;;;;;;;4.07;0.90;;;28.00;45.30;;;;;;6183106;23;20603;-88
2023/10/08 11:04:28;;;;;;;1.40;1.25;;;28.00;45.50;;;;;;6182906;23;20597;-85
2023/10/08 11:07:00;;;;;;;0.40;0.40;;;28.10;45.70;;;;;;6182623;23;20526;-86
2023/10/08 11:09:38;;;;;;;0.50;0.50;;;28.00;45.30;;;;;;6181739;23;20673;-85
2023/10/08 11:12:10;;;;;;;1.08;0.90;;;28.00;45.20;;;;;;6155673;23;20175;-85
2023/10/08 11:14:45;;;;;;;0.50;0.47;;;28.00;45.30;;;;;;6184127;23;20163;-86
2023/10/08 11:17:15;;;;;;;1.38;0.93;;;27.90;44.90;;;;;;6182482;23;20164;-87
2023/10/08 11:19:46;;;;;;;0.30;0.30;;;27.90;45.10;;;;;;6182541;23;20230;-87
2023/10/08 11:22:17;;;;;;;1.27;0.80;;;27.80;44.90;;;;;;6181873;23;20597;-87
2023/10/08 11:24:48;;;;;;;8.68;0.80;;;27.80;45.20;;;;;;6182318;23;20463;-89
2023/10/08 11:27:28;;;;;;;0.80;0.50;;;27.70;45.20;;;;;;6183629;23;20199;-88
2023/10/08 11:29:59;;;;;;;0.80;0.80;;;27.60;45.40;;;;;;6184029;23;20168;-86
2023/10/08 11:32:32;;;;;;;4.03;0.75;;;27.50;45.60;;;;;;6183690;23;20155;-90
2023/10/08 11:35:15;;;;;;;0.55;0.55;;;27.50;45.60;;;;;;6182849;23;20168;-86
2023/10/08 11:37:50;;;;;;;4.78;1.65;;;27.50;45.80;;;;;;6182730;23;20163;-88
2023/10/08 11:40:29;;;;;;;1.30;0.80;;;27.40;46.00;;;;;;6183247;23;20175;-88
2023/10/08 11:42:59;;;;;;;1.13;1.02;;;27.40;46.20;;;;;;6183326;23;20219;-91
2023/10/08 11:45:30;;;;;;;4.68;0.68;;;27.40;46.40;;;;;;6183002;23;20210;-86
2023/10/08 11:48:03;;;;;;;0.93;0.88;;;27.40;46.30;;;;;;6183534;23;20167;-90
2023/10/08 11:50:32;;;;;;;16.83;1.65;;;27.40;46.40;;;;;;6183347;23;20221;-89
2023/10/08 11:53:03;;;;;;;2.95;1.00;;;27.50;46.60;;;;;;6186934;23;20509;-85
2023/10/08 11:55:38;;;;;;;6.13;1.33;;;27.50;46.30;;;;;;6183875;23;20210;-87
2023/10/08 11:58:11;;;;;;;7.30;1.85;;;27.50;46.40;;;;;;6185476;23;20186;-87
2023/10/08 12:00:45;;;;;;;2.92;1.65;;;27.50;46.40;;;;;;6185906;23;20160;-92
2023/10/08 12:03:18;;;;;;;0.73;0.60;;;27.50;46.60;;;;;;6185255;23;20209;-89
2023/10/08 12:05:50;;;;;;;0.45;0.32;;;27.50;46.50;;;;;;6185163;23;20163;-86
2023/10/08 12:08:22;;;;;;;3.60;0.77;;;27.40;46.60;;;;;;6181017;23;20192;-86
2023/10/08 12:10:54;;;;;;;2.72;1.55;;;27.50;46.40;;;;;;6183647;23;20578;-84
2023/10/08 12:13:24;;;;;;;2.45;1.08;;;27.50;46.30;;;;;;6185433;23;20159;-89
2023/10/08 12:16:05;;;;;;;2.85;1.55;;;27.50;47.10;;;;;;6185138;23;20701;-86
2023/10/08 12:18:39;;;;;;;0.40;0.40;;;27.60;46.40;;;;;;6159702;23;20250;-86
2023/10/08 12:21:10;;;;;;;0.50;0.50;;;27.60;46.40;;;;;;6185869;23;20160;-87
2023/10/08 12:23:43;;;;;;;0.85;0.82;;;27.60;47.10;;;;;;6185113;23;20195;-85
2023/10/08 12:26:15;;;;;;;1.45;0.85;;;27.60;46.40;;;;;;6183839;23;20476;-89
2023/10/08 12:28:46;;;;;;;0.40;0.40;;;27.60;46.50;;;;;;6182206;23;20210;-88
2023/10/08 12:31:15;;;;;;;2.85;1.05;;;27.60;46.50;;;;;;6184979;23;20156;-85
2023/10/08 12:33:44;;;;;;;3.67;1.27;;;27.70;46.50;;;;;;6184411;23;20180;-89
2023/10/08 12:36:13;;;;;;;1.95;0.95;;;27.80;46.70;;;;;;6162485;23;20633;-88
2023/10/08 12:38:43;;;;;;;3.20;0.65;;;27.90;46.00;;;;;;6185404;23;20251;-90
2023/10/08 12:41:13;;;;;;;0.40;0.40;;;28.00;46.10;;;;;;6185900;23;20607;-86
2023/10/08 12:43:45;;;;;;;2.15;0.80;;;28.10;46.10;;;;;;6182164;23;20675;-87
2023/10/08 12:46:23;;;;;;;0.20;0.20;;;28.20;46.10;;;;;;6184350;23;20163;-89
2023/10/08 12:48:56;;;;;;;1.85;1.38;;;28.20;45.80;;;;;;6184761;23;20168;-88
2023/10/08 12:51:26;;;;;;;1.95;0.70;;;28.20;46.00;;;;;;6184243;23;20160;-87
2023/10/08 12:54:03;;;;;;;0.65;0.65;;;28.20;46.00;;;;;;6183796;23;20163;-86
2023/10/08 12:56:39;;;;;;;0.68;0.65;;;28.20;45.90;;;;;;6184053;23;20163;-87
2023/10/08 12:59:08;;;;;;;0.73;0.73;;;28.20;45.80;;;;;;6183767;23;20488;-86
2023/10/08 13:01:41;;;;;;;9.32;1.50;;;28.20;46.10;;;;;;6160189;23;20214;-88
2023/10/08 13:04:15;;;;;;;1.17;1.08;;;28.10;46.10;;;;;;6185219;23;20199;-87
2023/10/08 13:06:46;;;;;;;3.45;1.70;;;28.10;46.10;;;;;;6183001;23;20156;-86
2023/10/08 13:09:15;;;;;;;2.15;0.85;;;28.00;46.30;;;;;;6184173;23;20196;-84
2023/10/08 15:06:33;;;;;;;0.52;0.52;;;26.80;50.20;;;;;;6182105;23;20230;-83
2023/10/08 15:09:32;;;;;;;0.20;0.20;;;26.80;50.20;;;;;;6179489;23;20206;-84
2023/10/08 15:46:16;;;;;;;2.30;1.30;;;23.60;51.50;;;;;;6139789;23;20201;-84
2023/10/08 16:16:59;;;;;;;0.25;0.25;;;21.60;54.60;;;;;;6088027;23;20186;-88
2023/10/08 16:19:33;;;;;;;0.47;0.25;;;21.50;54.80;;;;;;6182865;23;20183;-86
2023/10/08 16:22:13;;;;;;;0.85;0.65;;;21.30;55.20;;;;;;6184351;23;20244;-84
2023/10/08 16:24:45;;;;;;;11.70;0.60;;;21.20;55.20;;;;;;6211313;23;20402;-88
2023/10/08 16:27:25;;;;;;;0.45;0.45;;;21.00;55.80;;;;;;6212968;23;20635;-86
2023/10/08 16:29:57;;;;;;;11.02;2.50;;;21.00;55.70;;;;;;6212820;23;20206;-87
2023/10/08 18:17:23;;;;;;;0.20;0.20;;;17.40;61.60;;;;;;6167714;22;20536;31
2023/10/08 19:29:25;;;;;;;;;;;;;;;;;;;;;
2023/10/08 19:40:10;;;;;;;0.30;0.30;;;15.70;69.10;;;;;;6161528;23;20206;-86
2023/10/08 19:42:47;;;;;;;1.60;0.97;;;15.60;69.20;;;;;;6210164;23;20535;-82
2023/10/08 19:45:17;;;;;;;0.30;0.30;;;15.60;69.10;;;;;;6207653;23;20198;-83
2023/10/08 19:47:46;;;;;;;0.20;0.20;;;15.60;69.30;;;;;;6211525;23;20246;-85
2023/10/08 19:50:16;;;;;;;0.30;0.30;;;15.60;69.70;;;;;;6208949;23;20173;-83
2023/10/08 19:52:46;;;;;;;2.03;0.70;;;15.50;69.90;;;;;;6209695;23;20249;-85
2023/10/08 19:55:16;;;;;;;0.30;0.30;;;15.50;70.10;;;;;;6209464;23;20170;-84
2023/10/08 19:57:45;;;;;;;0.20;0.20;;;15.50;70.10;;;;;;6205579;23;20175;-84
2023/10/08 20:00:14;;;;;;;0.20;0.20;;;15.50;69.70;;;;;;6210680;23;20175;-84
2023/10/08 20:02:43;;;;;;;0.20;0.20;;;15.60;69.70;;;;;;6212337;23;20176;-84
2023/10/08 20:05:15;;;;;;;0.20;0.20;;;15.50;69.80;;;;;;6211862;23;20226;-84
2023/10/08 20:07:45;;;;;;;0.43;0.43;;;15.50;70.20;;;;;;6210321;23;20321;-86
2023/10/08 20:10:16;;;;;;;0.20;0.20;;;15.50;70.20;;;;;;6212924;23;20258;-84
2023/10/08 20:12:45;;;;;;;0.33;0.33;;;15.50;70.10;;;;;;6213727;23;20552;-84
2023/10/08 20:15:18;;;;;;;0.67;0.60;;;15.40;70.40;;;;;;6211691;23;20160;-83
2023/10/08 20:17:52;;;;;;;9.90;0.67;;;15.40;70.20;;;;;;6209104;23;20166;-84
2023/10/08 20:20:24;;;;;;;0.20;0.20;;;15.40;70.40;;;;;;6209626;23;20158;-83
2023/10/08 20:22:53;;;;;;;0.60;0.60;;;15.50;70.20;;;;;;6209316;23;20217;-83
2023/10/08 20:25:29;;;;;;;0.77;0.40;;;15.40;70.30;;;;;;6210559;23;20199;-84
2023/10/08 20:27:57;;;;;;;0.20;0.20;;;15.50;70.00;;;;;;6212527;23;20159;-83
2023/10/08 20:30:27;;;;;;;0.27;0.27;;;15.40;70.20;;;;;;6211537;23;20177;-83
2023/10/08 20:32:56;;;;;;;0.70;0.70;;;15.50;70.30;;;;;;6211009;23;20225;-83
2023/10/08 20:35:27;;;;;;;0.30;0.30;;;15.50;69.90;;;;;;6186807;23;20163;-85
2023/10/08 20:37:56;;;;;;;0.30;0.30;;;15.50;69.80;;;;;;6212146;23;20229;-84
2023/10/08 20:40:28;;;;;;;0.77;0.77;;;15.50;69.80;;;;;;6185085;23;20202;-83
2023/10/08 20:42:58;;;;;;;0.20;0.20;;;15.60;69.40;;;;;;6213341;23;20166;-84
2023/10/08 20:45:28;;;;;;;2.20;1.03;;;15.60;69.10;;;;;;6185856;23;20195;-84
2023/10/08 20:47:58;;;;;;;0.20;0.20;;;15.50;69.20;;;;;;6211203;23;20179;-84
2023/10/08 20:50:29;;;;;;;0.20;0.20;;;15.60;69.10;;;;;;6212078;23;20159;-83